sensor_id;sensor_type;location;lat;lon;timestamp;pressure;altitude;pressure_sealevel;temperature;humidity
42003;BME280;27693;50.506;30.832;2022-10-16T00:00:53;101016.30;;;5.83;73.14
42003;BME280;27693;50.506;30.832;2022-10-16T00:01:55;101017.98;;;5.87;73.16
42003;BME280;27693;50.506;30.832;2022-10-16T00:02:57;101013.64;;;5.96;73.34
42003;BME280;27693;50.506;30.832;2022-10-16T00:04:00;101023.11;;;5.94;73.05
42003;BME280;27693;50.506;30.832;2022-10-16T00:05:04;101017.19;;;5.73;73.32
42003;BME280;27693;50.506;30.832;2022-10-16T00:06:07;101026.66;;;5.74;73.53
42003;BME280;27693;50.506;30.832;2022-10-16T00:07:10;101011.99;;;5.82;73.49
42003;BME280;27693;50.506;30.832;2022-10-16T00:08:14;101013.67;;;5.89;73.64
42003;BME280;27693;50.506;30.832;2022-10-16T00:09:17;101017.94;;;6.00;73.59
42003;BME280;27693;50.506;30.832;2022-10-16T00:10:20;101013.63;;;5.94;73.06
42003;BME280;27693;50.506;30.832;2022-10-16T00:11:25;101020.56;;;5.87;73.09
42003;BME280;27693;50.506;30.832;2022-10-16T00:12:27;101017.14;;;5.87;73.17
42003;BME280;27693;50.506;30.832;2022-10-16T00:13:31;101017.98;;;5.84;73.32
42003;BME280;27693;50.506;30.832;2022-10-16T00:14:33;101014.50;;;5.91;73.54
42003;BME280;27693;50.506;30.832;2022-10-16T00:15:36;101019.70;;;5.88;73.41
42003;BME280;27693;50.506;30.832;2022-10-16T00:16:39;101017.94;;;5.97;73.45
42003;BME280;27693;50.506;30.832;2022-10-16T00:17:42;101011.05;;;5.99;73.51
42003;BME280;27693;50.506;30.832;2022-10-16T00:18:45;101011.90;;;5.96;73.13
42003;BME280;27693;50.506;30.832;2022-10-16T00:19:47;101010.25;;;5.86;73.30
42003;BME280;27693;50.506;30.832;2022-10-16T00:20:48;101016.30;;;5.83;73.36
42003;BME280;27693;50.506;30.832;2022-10-16T00:21:50;101014.54;;;5.85;73.54
42003;BME280;27693;50.506;30.832;2022-10-16T00:22:52;101018.84;;;5.86;73.41
42003;BME280;27693;50.506;30.832;2022-10-16T00:23:57;101028.31;;;5.84;73.22
42003;BME280;27693;50.506;30.832;2022-10-16T00:24:59;101024.88;;;5.85;73.33
42003;BME280;27693;50.506;30.832;2022-10-16T00:26:08;101024.87;;;5.88;73.30
42003;BME280;27693;50.506;30.832;2022-10-16T00:27:07;101014.54;;;5.88;72.67
42003;BME280;27693;50.506;30.832;2022-10-16T00:28:09;101021.42;;;5.89;72.54
42003;BME280;27693;50.506;30.832;2022-10-16T00:29:11;101016.22;;;5.92;72.58
42003;BME280;27693;50.506;30.832;2022-10-16T00:30:13;101019.73;;;5.82;72.41
42003;BME280;27693;50.506;30.832;2022-10-16T00:31:16;101020.56;;;5.84;72.55
42003;BME280;27693;50.506;30.832;2022-10-16T00:32:20;101019.72;;;5.87;72.60
42003;BME280;27693;50.506;30.832;2022-10-16T00:33:31;101016.17;;;6.05;72.55
42003;BME280;27693;50.506;30.832;2022-10-16T00:34:34;101022.23;;;5.96;72.35
42003;BME280;27693;50.506;30.832;2022-10-16T00:35:36;101023.11;;;5.97;72.05
42003;BME280;27693;50.506;30.832;2022-10-16T00:36:38;101029.99;;;6.01;71.56
42003;BME280;27693;50.506;30.832;2022-10-16T00:37:41;101029.99;;;6.01;71.56
42003;BME280;27693;50.506;30.832;2022-10-16T00:38:43;101023.10;;;6.03;71.58
42003;BME280;27693;50.506;30.832;2022-10-16T00:39:45;101023.08;;;6.04;71.46
42003;BME280;27693;50.506;30.832;2022-10-16T00:40:47;101024.78;;;6.07;71.32
42003;BME280;27693;50.506;30.832;2022-10-16T00:41:49;101028.23;;;6.06;70.75
42003;BME280;27693;50.506;30.832;2022-10-16T00:42:51;101024.82;;;6.04;70.74
42003;BME280;27693;50.506;30.832;2022-10-16T00:43:59;101026.56;;;5.92;70.41
42003;BME280;27693;50.506;30.832;2022-10-16T00:45:02;101030.03;;;5.88;70.28
42003;BME280;27693;50.506;30.832;2022-10-16T00:47:30;101019.70;;;5.85;70.52
42003;BME280;27693;50.506;30.832;2022-10-16T00:48:33;101030.11;;;5.76;70.53
42003;BME280;27693;50.506;30.832;2022-10-16T00:49:35;101033.55;;;5.75;70.46
42003;BME280;27693;50.506;30.832;2022-10-16T00:50:37;101030.11;;;5.73;70.50
42003;BME280;27693;50.506;30.832;2022-10-16T00:51:45;101026.66;;;5.71;70.56
42003;BME280;27693;50.506;30.832;2022-10-16T00:52:48;101036.13;;;5.72;70.75
42003;BME280;27693;50.506;30.832;2022-10-16T00:53:51;101039.60;;;5.68;70.67
42003;BME280;27693;50.506;30.832;2022-10-16T00:54:54;101038.74;;;5.66;70.73
42003;BME280;27693;50.506;30.832;2022-10-16T00:55:57;101043.05;;;5.67;70.83
42003;BME280;27693;50.506;30.832;2022-10-16T00:57:01;101040.45;;;5.71;70.95
42003;BME280;27693;50.506;30.832;2022-10-16T00:58:03;101033.58;;;5.69;70.70
42003;BME280;27693;50.506;30.832;2022-10-16T00:59:10;101037.06;;;5.54;70.87
42003;BME280;27693;50.506;30.832;2022-10-16T01:00:15;101040.55;;;5.45;71.35
42003;BME280;27693;50.506;30.832;2022-10-16T01:01:18;101041.39;;;5.49;71.25
42003;BME280;27693;50.506;30.832;2022-10-16T01:02:20;101039.69;;;5.46;71.53
42003;BME280;27693;50.506;30.832;2022-10-16T01:03:26;101043.95;;;5.50;71.37
42003;BME280;27693;50.506;30.832;2022-10-16T01:04:32;101041.35;;;5.59;71.50
42003;BME280;27693;50.506;30.832;2022-10-16T01:05:40;101053.36;;;5.68;71.38
42003;BME280;27693;50.506;30.832;2022-10-16T01:09:16;101043.84;;;5.78;71.19
42003;BME280;27693;50.506;30.832;2022-10-16T01:10:35;101047.29;;;5.83;71.25
42003;BME280;27693;50.506;30.832;2022-10-16T01:12:26;101043.81;;;5.87;71.35
42003;BME280;27693;50.506;30.832;2022-10-16T01:13:04;101036.92;;;5.89;71.27
42003;BME280;27693;50.506;30.832;2022-10-16T01:14:11;101037.80;;;5.81;70.96
42003;BME280;27693;50.506;30.832;2022-10-16T01:16:44;101043.84;;;5.81;71.13
42003;BME280;27693;50.506;30.832;2022-10-16T01:17:46;101043.81;;;5.84;71.14
42003;BME280;27693;50.506;30.832;2022-10-16T01:18:54;101041.21;;;5.89;71.11
42003;BME280;27693;50.506;30.832;2022-10-16T01:21:26;101036.95;;;5.77;70.80
42003;BME280;27693;50.506;30.832;2022-10-16T01:22:33;101040.41;;;5.82;71.15
42003;BME280;27693;50.506;30.832;2022-10-16T01:24:58;101040.44;;;5.76;71.07
42003;BME280;27693;50.506;30.832;2022-10-16T01:26:19;101046.53;;;5.58;71.17
42003;BME280;27693;50.506;30.832;2022-10-16T01:27:29;101050.84;;;5.54;71.20
42003;BME280;27693;50.506;30.832;2022-10-16T01:31:18;101055.95;;;5.64;71.04
42003;BME280;27693;50.506;30.832;2022-10-16T01:33:46;101053.36;;;5.68;71.27
42003;BME280;27693;50.506;30.832;2022-10-16T01:36:15;101053.42;;;5.51;71.30
42003;BME280;27693;50.506;30.832;2022-10-16T01:37:24;101049.95;;;5.60;71.41
42003;BME280;27693;50.506;30.832;2022-10-16T01:38:34;101062.89;;;5.49;71.10
42003;BME280;27693;50.506;30.832;2022-10-16T01:39:38;101056.03;;;5.45;71.33
42003;BME280;27693;50.506;30.832;2022-10-16T01:40:48;101057.77;;;5.41;71.38
42003;BME280;27693;50.506;30.832;2022-10-16T01:41:54;101067.27;;;5.30;71.64
42003;BME280;27693;50.506;30.832;2022-10-16T01:43:10;101063.84;;;5.22;71.96
42003;BME280;27693;50.506;30.832;2022-10-16T01:44:17;101066.42;;;5.17;72.20
42003;BME280;27693;50.506;30.832;2022-10-16T01:45:18;101062.12;;;5.15;72.32
42003;BME280;27693;50.506;30.832;2022-10-16T01:46:22;101062.98;;;5.09;72.58
42003;BME280;27693;50.506;30.832;2022-10-16T01:47:27;101061.26;;;5.17;72.45
42003;BME280;27693;50.506;30.832;2022-10-16T01:48:31;101071.60;;;5.14;72.54
42003;BME280;27693;50.506;30.832;2022-10-16T01:49:36;101065.56;;;5.23;72.46
42003;BME280;27693;50.506;30.832;2022-10-16T01:50:42;101068.13;;;5.27;72.41
42003;BME280;27693;50.506;30.832;2022-10-16T01:51:47;101074.17;;;5.20;72.37
42003;BME280;27693;50.506;30.832;2022-10-16T01:52:52;101069.86;;;5.28;72.40
42003;BME280;27693;50.506;30.832;2022-10-16T01:53:58;101068.12;;;5.34;72.28
42003;BME280;27693;50.506;30.832;2022-10-16T01:55:04;101071.53;;;5.39;72.15
42003;BME280;27693;50.506;30.832;2022-10-16T01:56:11;101071.53;;;5.36;71.81
42003;BME280;27693;50.506;30.832;2022-10-16T01:57:14;101072.43;;;5.25;71.93
42003;BME280;27693;50.506;30.832;2022-10-16T01:58:17;101069.84;;;5.25;71.60
42003;BME280;27693;50.506;30.832;2022-10-16T01:59:21;101070.73;;;5.21;71.70
42003;BME280;27693;50.506;30.832;2022-10-16T02:00:26;101068.98;;;5.19;71.99
42003;BME280;27693;50.506;30.832;2022-10-16T02:01:30;101071.61;;;5.05;72.41
42003;BME280;27693;50.506;30.832;2022-10-16T02:02:33;101076.77;;;5.09;72.44
42003;BME280;27693;50.506;30.832;2022-10-16T02:03:37;101078.47;;;5.21;72.33
42003;BME280;27693;50.506;30.832;2022-10-16T02:05:58;101071.50;;;5.54;71.49
42003;BME280;27693;50.506;30.832;2022-10-16T02:07:00;101062.97;;;5.24;71.16
42003;BME280;27693;50.506;30.832;2022-10-16T02:08:03;101062.97;;;5.24;71.16
42003;BME280;27693;50.506;30.832;2022-10-16T02:09:07;101069.84;;;5.22;71.34
42003;BME280;27693;50.506;30.832;2022-10-16T02:10:10;101073.28;;;5.24;71.32
42003;BME280;27693;50.506;30.832;2022-10-16T02:11:12;101075.88;;;5.23;71.32
42003;BME280;27693;50.506;30.832;2022-10-16T02:12:30;101074.14;;;5.28;71.41
42003;BME280;27693;50.506;30.832;2022-10-16T02:14:48;101081.00;;;5.32;71.14
42003;BME280;27693;50.506;30.832;2022-10-16T02:15:50;101080.16;;;5.35;71.12
42003;BME280;27693;50.506;30.832;2022-10-16T02:16:55;101078.42;;;5.40;71.15
42003;BME280;27693;50.506;30.832;2022-10-16T02:17:57;101085.30;;;5.41;70.94
42003;BME280;27693;50.506;30.832;2022-10-16T02:18:59;101090.44;;;5.44;70.70
42003;BME280;27693;50.506;30.832;2022-10-16T02:20:02;101079.26;;;5.45;70.51
42003;BME280;27693;50.506;30.832;2022-10-16T02:21:10;101083.58;;;5.40;70.13
42003;BME280;27693;50.506;30.832;2022-10-16T02:22:17;101088.75;;;5.31;70.26
42003;BME280;27693;50.506;30.832;2022-10-16T02:23:24;101093.08;;;5.21;70.14
42003;BME280;27693;50.506;30.832;2022-10-16T02:25:40;101085.36;;;5.13;70.44
42003;BME280;27693;50.506;30.832;2022-10-16T02:28:24;101090.48;;;5.22;70.28
42003;BME280;27693;50.506;30.832;2022-10-16T02:29:27;101087.92;;;5.10;70.07
42003;BME280;27693;50.506;30.832;2022-10-16T02:30:48;101085.36;;;5.13;69.99
42003;BME280;27693;50.506;30.832;2022-10-16T02:31:49;101085.36;;;5.13;69.98
42003;BME280;27693;50.506;30.832;2022-10-16T02:32:53;101085.38;;;5.01;70.33
42003;BME280;27693;50.506;30.832;2022-10-16T02:33:58;101083.66;;;4.93;70.53
42003;BME280;27693;50.506;30.832;2022-10-16T02:35:03;101087.08;;;4.89;70.60
42003;BME280;27693;50.506;30.832;2022-10-16T02:36:07;101087.09;;;4.88;70.67
42003;BME280;27693;50.506;30.832;2022-10-16T02:37:10;101088.81;;;4.78;70.89
42003;BME280;27693;50.506;30.832;2022-10-16T02:38:14;101090.54;;;4.79;70.95
42003;BME280;27693;50.506;30.832;2022-10-16T02:39:17;101087.95;;;4.74;71.09
42003;BME280;27693;50.506;30.832;2022-10-16T02:40:20;101090.53;;;4.70;71.24
42003;BME280;27693;50.506;30.832;2022-10-16T02:41:24;101085.39;;;4.73;71.14
42003;BME280;27693;50.506;30.832;2022-10-16T02:42:35;101091.41;;;4.76;71.14
42003;BME280;27693;50.506;30.832;2022-10-16T02:43:38;101091.41;;;4.76;71.04
42003;BME280;27693;50.506;30.832;2022-10-16T02:44:40;101093.97;;;4.84;70.96
42003;BME280;27693;50.506;30.832;2022-10-16T02:45:42;101093.09;;;4.88;70.83
42003;BME280;27693;50.506;30.832;2022-10-16T02:46:44;101099.12;;;4.96;70.80
42003;BME280;27693;50.506;30.832;2022-10-16T02:47:46;101095.67;;;4.99;70.73
42003;BME280;27693;50.506;30.832;2022-10-16T02:48:48;101099.98;;;5.00;70.59
42003;BME280;27693;50.506;30.832;2022-10-16T02:49:49;101105.99;;;5.04;70.44
42003;BME280;27693;50.506;30.832;2022-10-16T02:50:51;101098.25;;;5.08;70.29
42003;BME280;27693;50.506;30.832;2022-10-16T02:51:53;101098.28;;;4.90;70.02
42003;BME280;27693;50.506;30.832;2022-10-16T02:52:55;101101.69;;;4.92;70.01
42003;BME280;27693;50.506;30.832;2022-10-16T02:53:57;101092.25;;;4.82;70.25
42003;BME280;27693;50.506;30.832;2022-10-16T02:54:59;101100.00;;;4.80;70.27
42003;BME280;27693;50.506;30.832;2022-10-16T02:56:01;101102.56;;;4.64;70.91
42003;BME280;27693;50.506;30.832;2022-10-16T02:57:03;101102.56;;;4.64;70.91
42003;BME280;27693;50.506;30.832;2022-10-16T02:58:04;101099.99;;;4.69;70.80
42003;BME280;27693;50.506;30.832;2022-10-16T02:59:07;101099.13;;;4.72;70.76
42003;BME280;27693;50.506;30.832;2022-10-16T03:00:12;101094.84;;;4.75;70.50
42003;BME280;27693;50.506;30.832;2022-10-16T03:01:14;101097.39;;;4.68;70.57
42003;BME280;27693;50.506;30.832;2022-10-16T03:02:17;101103.41;;;4.70;70.61
42003;BME280;27693;50.506;30.832;2022-10-16T03:03:19;101105.13;;;4.66;70.56
42003;BME280;27693;50.506;30.832;2022-10-16T03:04:21;101102.56;;;4.64;70.66
42003;BME280;27693;50.506;30.832;2022-10-16T03:05:22;101098.27;;;4.67;70.76
42003;BME280;27693;50.506;30.832;2022-10-16T03:06:24;101097.41;;;4.71;70.66
42003;BME280;27693;50.506;30.832;2022-10-16T03:07:27;101105.14;;;4.77;70.64
42003;BME280;27693;50.506;30.832;2022-10-16T03:08:29;101115.45;;;4.78;70.54
42003;BME280;27693;50.506;30.832;2022-10-16T03:09:31;101107.73;;;4.80;70.53
42003;BME280;27693;50.506;30.832;2022-10-16T03:10:34;101109.44;;;4.84;70.35
42003;BME280;27693;50.506;30.832;2022-10-16T03:11:36;101120.62;;;4.75;70.50
42003;BME280;27693;50.506;30.832;2022-10-16T03:12:38;101106.88;;;4.76;70.64
42003;BME280;27693;50.506;30.832;2022-10-16T03:13:40;101108.59;;;4.73;70.71
42003;BME280;27693;50.506;30.832;2022-10-16T03:14:41;101109.44;;;4.78;70.60
42003;BME280;27693;50.506;30.832;2022-10-16T03:15:43;101112.88;;;4.82;70.58
42003;BME280;27693;50.506;30.832;2022-10-16T03:16:45;101118.03;;;4.89;70.54
42003;BME280;27693;50.506;30.832;2022-10-16T03:17:47;101113.74;;;4.91;70.38
42003;BME280;27693;50.506;30.832;2022-10-16T03:18:49;101115.46;;;4.75;70.43
42003;BME280;27693;50.506;30.832;2022-10-16T03:19:51;101119.77;;;4.76;70.47
42003;BME280;27693;50.506;30.832;2022-10-16T03:20:53;101112.89;;;4.80;70.56
42003;BME280;27693;50.506;30.832;2022-10-16T03:21:56;101116.33;;;4.85;70.41
42003;BME280;27693;50.506;30.832;2022-10-16T03:22:58;101112.02;;;4.90;70.37
42003;BME280;27693;50.506;30.832;2022-10-16T03:24:00;101110.29;;;4.95;70.30
42003;BME280;27693;50.506;30.832;2022-10-16T03:25:03;101112.88;;;4.99;70.00
42003;BME280;27693;50.506;30.832;2022-10-16T03:26:05;101118.87;;;4.94;69.84
42003;BME280;27693;50.506;30.832;2022-10-16T03:27:07;101118.91;;;4.90;69.89
42003;BME280;27693;50.506;30.832;2022-10-16T03:28:09;101117.19;;;4.89;69.80
42003;BME280;27693;50.506;30.832;2022-10-16T03:29:11;101121.48;;;4.84;69.83
42003;BME280;27693;50.506;30.832;2022-10-16T03:30:14;101117.17;;;4.73;70.08
42003;BME280;27693;50.506;30.832;2022-10-16T03:31:16;101121.48;;;4.73;70.06
42003;BME280;27693;50.506;30.832;2022-10-16T03:32:17;101119.75;;;4.72;69.98
42003;BME280;27693;50.506;30.832;2022-10-16T03:33:19;101120.61;;;4.71;70.04
42003;BME280;27693;50.506;30.832;2022-10-16T03:34:21;101117.16;;;4.61;70.24
42003;BME280;27693;50.506;30.832;2022-10-16T03:35:24;101117.12;;;4.45;70.85
42003;BME280;27693;50.506;30.832;2022-10-16T03:36:26;101121.45;;;4.50;70.87
42003;BME280;27693;50.506;30.832;2022-10-16T03:37:28;101121.42;;;4.48;71.02
42003;BME280;27693;50.506;30.832;2022-10-16T03:38:32;101124.00;;;4.40;71.11
42003;BME280;27693;50.506;30.832;2022-10-16T03:39:34;101124.02;;;4.45;71.11
42003;BME280;27693;50.506;30.832;2022-10-16T03:40:35;101123.98;;;4.43;71.21
42003;BME280;27693;50.506;30.832;2022-10-16T03:41:37;101125.74;;;4.46;71.32
42003;BME280;27693;50.506;30.832;2022-10-16T03:42:39;101125.74;;;4.46;71.32
42003;BME280;27693;50.506;30.832;2022-10-16T03:43:41;101124.86;;;4.38;71.28
42003;BME280;27693;50.506;30.832;2022-10-16T03:44:43;101126.54;;;4.32;71.51
42003;BME280;27693;50.506;30.832;2022-10-16T03:45:44;101124.83;;;4.35;71.51
42003;BME280;27693;50.506;30.832;2022-10-16T03:46:46;101132.56;;;4.35;71.54
42003;BME280;27693;50.506;30.832;2022-10-16T03:47:48;101121.38;;;4.32;71.47
42003;BME280;27693;50.506;30.832;2022-10-16T03:48:51;101127.41;;;4.35;71.62
42003;BME280;27693;50.506;30.832;2022-10-16T03:49:53;101121.41;;;4.36;71.59
42003;BME280;27693;50.506;30.832;2022-10-16T03:50:54;101131.69;;;4.32;71.62
42003;BME280;27693;50.506;30.832;2022-10-16T03:51:56;101135.14;;;4.25;71.90
42003;BME280;27693;50.506;30.832;2022-10-16T03:52:58;101135.14;;;4.25;72.11
42003;BME280;27693;50.506;30.832;2022-10-16T03:54:00;101134.30;;;4.34;72.04
42003;BME280;27693;50.506;30.832;2022-10-16T03:55:02;101136.87;;;4.36;71.81
42003;BME280;27693;50.506;30.832;2022-10-16T03:56:05;101129.14;;;4.36;71.79
42003;BME280;27693;50.506;30.832;2022-10-16T03:57:07;101124.83;;;4.35;71.74
42003;BME280;27693;50.506;30.832;2022-10-16T03:58:10;101129.14;;;4.34;72.30
42003;BME280;27693;50.506;30.832;2022-10-16T03:59:12;101129.14;;;4.34;72.30
42003;BME280;27693;50.506;30.832;2022-10-16T04:00:14;101123.14;;;4.43;72.23
42003;BME280;27693;50.506;30.832;2022-10-16T04:01:16;101126.59;;;4.51;71.96
42003;BME280;27693;50.506;30.832;2022-10-16T04:02:18;101123.16;;;4.49;71.56
42003;BME280;27693;50.506;30.832;2022-10-16T04:03:20;101126.59;;;4.45;71.52
42003;BME280;27693;50.506;30.832;2022-10-16T04:04:23;101122.30;;;4.50;71.55
42003;BME280;27693;50.506;30.832;2022-10-16T04:05:25;101124.88;;;4.56;71.71
42003;BME280;27693;50.506;30.832;2022-10-16T04:06:27;101125.77;;;4.64;71.67
42003;BME280;27693;50.506;30.832;2022-10-16T04:07:30;101129.20;;;4.70;71.54
42003;BME280;27693;50.506;30.832;2022-10-16T04:08:32;101129.20;;;4.74;71.27
42003;BME280;27693;50.506;30.832;2022-10-16T04:09:34;101130.05;;;4.75;71.09
42003;BME280;27693;50.506;30.832;2022-10-16T04:10:37;101130.91;;;4.78;71.15
42003;BME280;27693;50.506;30.832;2022-10-16T04:11:39;101130.94;;;4.80;70.92
42003;BME280;27693;50.506;30.832;2022-10-16T04:12:42;101133.52;;;4.80;70.81
42003;BME280;27693;50.506;30.832;2022-10-16T04:13:44;101132.63;;;4.81;70.88
42003;BME280;27693;50.506;30.832;2022-10-16T04:14:45;101121.47;;;4.82;70.79
42003;BME280;27693;50.506;30.832;2022-10-16T04:15:47;101131.80;;;4.85;70.75
42003;BME280;27693;50.506;30.832;2022-10-16T04:16:49;101130.07;;;4.84;70.67
42003;BME280;27693;50.506;30.832;2022-10-16T04:17:52;101126.62;;;4.80;70.54
42003;BME280;27693;50.506;30.832;2022-10-16T04:18:54;101125.76;;;4.78;70.66
42003;BME280;27693;50.506;30.832;2022-10-16T04:19:55;101119.75;;;4.78;70.61
42003;BME280;27693;50.506;30.832;2022-10-16T04:21:03;101123.19;;;4.77;70.74
42003;BME280;27693;50.506;30.832;2022-10-16T04:22:05;101120.61;;;4.77;70.74
42003;BME280;27693;50.506;30.832;2022-10-16T04:23:07;101124.03;;;4.77;70.84
42003;BME280;27693;50.506;30.832;2022-10-16T04:24:08;101124.91;;;4.78;70.81
42003;BME280;27693;50.506;30.832;2022-10-16T04:25:10;101124.89;;;4.75;70.88
42003;BME280;27693;50.506;30.832;2022-10-16T04:26:12;101125.77;;;4.77;70.90
42003;BME280;27693;50.506;30.832;2022-10-16T04:27:14;101131.78;;;4.76;70.89
42003;BME280;27693;50.506;30.832;2022-10-16T04:28:16;101124.05;;;4.80;71.08
42003;BME280;27693;50.506;30.832;2022-10-16T04:29:18;101131.78;;;4.82;70.87
42003;BME280;27693;50.506;30.832;2022-10-16T04:30:21;101133.50;;;4.77;70.70
42003;BME280;27693;50.506;30.832;2022-10-16T04:31:23;101133.49;;;4.64;71.09
42003;BME280;27693;50.506;30.832;2022-10-16T04:32:26;101126.62;;;4.70;71.20
42003;BME280;27693;50.506;30.832;2022-10-16T04:33:28;101128.33;;;4.74;71.25
42003;BME280;27693;50.506;30.832;2022-10-16T04:34:30;101130.04;;;4.56;71.38
42003;BME280;27693;50.506;30.832;2022-10-16T04:35:31;101138.61;;;4.49;71.75
42003;BME280;27693;50.506;30.832;2022-10-16T04:36:33;101131.74;;;4.54;71.75
42003;BME280;27693;50.506;30.832;2022-10-16T04:37:35;101135.22;;;4.59;71.76
42003;BME280;27693;50.506;30.832;2022-10-16T04:38:37;101136.92;;;4.63;71.74
42003;BME280;27693;50.506;30.832;2022-10-16T04:39:39;101136.92;;;4.63;71.79
42003;BME280;27693;50.506;30.832;2022-10-16T04:40:42;101138.63;;;4.61;71.75
42003;BME280;27693;50.506;30.832;2022-10-16T04:41:44;101138.63;;;4.61;71.67
42003;BME280;27693;50.506;30.832;2022-10-16T04:42:47;101140.36;;;4.62;71.77
42003;BME280;27693;50.506;30.832;2022-10-16T04:43:49;101136.06;;;4.68;71.97
42003;BME280;27693;50.506;30.832;2022-10-16T04:44:51;101148.11;;;4.66;71.80
42003;BME280;27693;50.506;30.832;2022-10-16T04:45:53;101146.33;;;4.44;72.23
42003;BME280;27693;50.506;30.832;2022-10-16T04:46:55;101150.59;;;4.35;72.80
42003;BME280;27693;50.506;30.832;2022-10-16T04:47:58;101156.62;;;4.29;73.22
42003;BME280;27693;50.506;30.832;2022-10-16T04:48:59;101147.20;;;4.39;73.23
42003;BME280;27693;50.506;30.832;2022-10-16T04:50:01;101156.67;;;4.46;73.02
42003;BME280;27693;50.506;30.832;2022-10-16T04:51:04;101159.24;;;4.46;72.86
42003;BME280;27693;50.506;30.832;2022-10-16T04:52:06;101159.23;;;4.49;72.82
42003;BME280;27693;50.506;30.832;2022-10-16T04:53:09;101157.53;;;4.51;72.69
42003;BME280;27693;50.506;30.832;2022-10-16T04:54:11;101162.66;;;4.48;72.63
42003;BME280;27693;50.506;30.832;2022-10-16T04:55:14;101160.12;;;4.57;72.54
42003;BME280;27693;50.506;30.832;2022-10-16T04:56:16;101169.58;;;4.64;72.70
42003;BME280;27693;50.506;30.832;2022-10-16T04:57:18;101166.14;;;4.70;72.69
42003;BME280;27693;50.506;30.832;2022-10-16T04:58:20;101172.17;;;4.71;72.28
42003;BME280;27693;50.506;30.832;2022-10-16T04:59:22;101167.02;;;4.77;72.24
42003;BME280;27693;50.506;30.832;2022-10-16T05:00:26;101173.05;;;4.79;72.12
42003;BME280;27693;50.506;30.832;2022-10-16T05:01:29;101179.92;;;4.89;72.02
42003;BME280;27693;50.506;30.832;2022-10-16T05:02:31;101174.77;;;4.89;71.70
42003;BME280;27693;50.506;30.832;2022-10-16T05:03:34;101178.20;;;4.94;71.66
42003;BME280;27693;50.506;30.832;2022-10-16T05:04:35;101181.65;;;4.96;71.39
42003;BME280;27693;50.506;30.832;2022-10-16T05:05:43;101183.38;;;5.04;71.42
42003;BME280;27693;50.506;30.832;2022-10-16T05:06:45;101175.66;;;5.07;71.32
42003;BME280;27693;50.506;30.832;2022-10-16T05:07:47;101183.38;;;5.10;71.00
42003;BME280;27693;50.506;30.832;2022-10-16T05:08:49;101178.23;;;5.13;71.04
42003;BME280;27693;50.506;30.832;2022-10-16T05:09:51;101179.94;;;5.11;70.64
42003;BME280;27693;50.506;30.832;2022-10-16T05:10:53;101186.81;;;5.03;70.55
42003;BME280;27693;50.506;30.832;2022-10-16T05:11:55;101184.25;;;5.00;70.60
42003;BME280;27693;50.506;30.832;2022-10-16T05:12:57;101184.23;;;4.95;70.55
42003;BME280;27693;50.506;30.832;2022-10-16T05:13:59;101184.23;;;5.01;70.57
42003;BME280;27693;50.506;30.832;2022-10-16T05:15:02;101191.98;;;4.93;70.57
42003;BME280;27693;50.506;30.832;2022-10-16T05:16:05;101183.38;;;4.91;70.57
42003;BME280;27693;50.506;30.832;2022-10-16T05:17:07;101181.66;;;4.87;70.79
42003;BME280;27693;50.506;30.832;2022-10-16T05:18:09;101188.51;;;4.82;70.76
42003;BME280;27693;50.506;30.832;2022-10-16T05:19:12;101191.07;;;4.77;71.03
42003;BME280;27693;50.506;30.832;2022-10-16T05:20:16;101193.66;;;4.82;71.08
42003;BME280;27693;50.506;30.832;2022-10-16T05:21:18;101192.80;;;4.78;71.12
42003;BME280;27693;50.506;30.832;2022-10-16T05:22:20;101195.41;;;4.80;71.16
42003;BME280;27693;50.506;30.832;2022-10-16T05:23:22;101197.97;;;4.82;71.29
42003;BME280;27693;50.506;30.832;2022-10-16T05:24:24;101194.55;;;4.90;71.18
42003;BME280;27693;50.506;30.832;2022-10-16T05:25:27;101198.83;;;4.88;70.80
42003;BME280;27693;50.506;30.832;2022-10-16T05:26:29;101195.40;;;4.89;70.81
42003;BME280;27693;50.506;30.832;2022-10-16T05:27:30;101189.36;;;4.75;70.60
42003;BME280;27693;50.506;30.832;2022-10-16T05:28:32;101189.36;;;4.75;70.60
42003;BME280;27693;50.506;30.832;2022-10-16T05:29:34;101207.41;;;4.75;70.88
42003;BME280;27693;50.506;30.832;2022-10-16T05:30:37;101203.98;;;4.73;70.84
42003;BME280;27693;50.506;30.832;2022-10-16T05:31:39;101211.70;;;4.68;71.13
42003;BME280;27693;50.506;30.832;2022-10-16T05:32:41;101209.98;;;4.75;71.75
42003;BME280;27693;50.506;30.832;2022-10-16T05:33:45;101208.27;;;4.77;72.50
42003;BME280;27693;50.506;30.832;2022-10-16T05:34:47;101212.58;;;4.78;72.28
42003;BME280;27693;50.506;30.832;2022-10-16T05:35:49;101217.70;;;4.59;72.13
42003;BME280;27693;50.506;30.832;2022-10-16T05:36:52;101213.42;;;4.69;72.27
42003;BME280;27693;50.506;30.832;2022-10-16T05:37:54;101217.72;;;4.75;72.49
42003;BME280;27693;50.506;30.832;2022-10-16T05:38:56;101216.02;;;4.77;72.16
42003;BME280;27693;50.506;30.832;2022-10-16T05:39:58;101226.30;;;4.64;71.66
42003;BME280;27693;50.506;30.832;2022-10-16T05:41:00;101222.87;;;4.66;71.76
42003;BME280;27693;50.506;30.832;2022-10-16T05:42:03;101226.29;;;4.68;71.58
42003;BME280;27693;50.506;30.832;2022-10-16T05:43:05;101231.44;;;4.68;71.59
42003;BME280;27693;50.506;30.832;2022-10-16T05:44:08;101234.04;;;4.72;71.79
42003;BME280;27693;50.506;30.832;2022-10-16T05:45:10;101234.91;;;4.76;71.95
42003;BME280;27693;50.506;30.832;2022-10-16T05:46:14;101240.95;;;4.86;71.65
42003;BME280;27693;50.506;30.832;2022-10-16T05:47:15;101240.95;;;4.86;71.65
42003;BME280;27693;50.506;30.832;2022-10-16T05:48:17;101240.97;;;4.89;71.55
42003;BME280;27693;50.506;30.832;2022-10-16T05:49:19;101244.39;;;4.89;71.22
42003;BME280;27693;50.506;30.832;2022-10-16T05:50:21;101240.09;;;4.94;71.25